createdAt,value
2018-06-20T00:02:21.356Z,67.20
2018-06-20T00:04:51.887Z,67.50
2018-06-20T00:07:23.048Z,67.40
2018-06-20T00:15:47.443Z,67.60
2018-06-20T00:22:02.355Z,68.30
2018-06-20T00:24:33.051Z,68.80
2018-06-20T00:27:06.767Z,69.00
2018-06-20T00:29:37.043Z,69.10
2018-06-20T00:32:06.990Z,69.10
2018-06-20T00:34:41.589Z,69.30
2018-06-20T00:37:12.015Z,69.60
2018-06-20T00:39:42.547Z,69.70
2018-06-20T00:42:13.887Z,69.90
2018-06-20T00:44:43.338Z,70.00
2018-06-20T00:47:14.222Z,70.10
2018-06-20T00:49:45.424Z,70.10
2018-06-20T00:52:16.548Z,70.40
2018-06-20T00:54:48.154Z,71.10
2018-06-20T00:57:17.593Z,70.50
2018-06-20T00:59:49.390Z,70.70
2018-06-20T01:02:22.029Z,70.70
2018-06-20T01:04:54.284Z,71.10
2018-06-20T01:07:26.860Z,71.30
2018-06-20T01:09:58.098Z,71.60
2018-06-20T01:12:31.081Z,71.80
2018-06-20T01:15:00.935Z,72.10
2018-06-20T01:17:32.776Z,72.10
2018-06-20T01:20:03.727Z,72.00
2018-06-20T01:22:34.525Z,72.10
2018-06-20T01:25:05.570Z,72.10
2018-06-20T01:27:40.899Z,72.30
2018-06-20T01:30:11.152Z,72.60
2018-06-20T01:32:42.303Z,72.80
2018-06-20T01:35:13.652Z,73.00
2018-06-20T01:37:43.910Z,73.20
2018-06-20T01:40:20.404Z,73.40
2018-06-20T01:42:50.050Z,73.50
2018-06-20T01:45:20.478Z,73.40
2018-06-20T01:47:51.038Z,73.50
2018-06-20T01:50:27.284Z,73.50
2018-06-20T01:52:59.088Z,73.50
2018-06-20T01:55:29.534Z,73.60
2018-06-20T01:57:59.003Z,73.70
2018-06-20T02:00:34.595Z,73.70
2018-06-20T02:03:05.361Z,73.80
2018-06-20T02:05:35.494Z,73.90
2018-06-20T02:08:05.994Z,73.90
2018-06-20T02:10:37.327Z,74.20
2018-06-20T02:13:08.824Z,74.20
2018-06-20T02:15:45.229Z,74.30
2018-06-20T02:18:20.538Z,74.40
2018-06-20T02:20:51.958Z,74.50
2018-06-20T02:23:22.054Z,74.60
2018-06-20T02:25:52.185Z,74.40
2018-06-20T02:28:24.214Z,74.50
2018-06-20T02:30:54.207Z,74.30
2018-06-20T02:33:25.522Z,74.20
2018-06-20T02:35:55.011Z,74.00
2018-06-20T02:38:25.812Z,74.10
2018-06-20T02:41:02.108Z,74.00
2018-06-20T02:43:32.833Z,73.80
2018-06-20T02:49:16.802Z,74.00
2018-06-20T02:55:08.834Z,74.00
2018-06-20T02:57:39.844Z,73.70
2018-06-20T03:00:09.177Z,73.60
2018-06-20T03:02:40.240Z,73.50
2018-06-20T03:05:10.430Z,73.50
2018-06-20T03:07:40.171Z,73.50
2018-06-20T03:10:11.009Z,73.20
2018-06-20T03:12:42.007Z,73.20
2018-06-20T03:15:13.830Z,73.40
2018-06-20T03:17:44.024Z,73.00
2018-06-20T03:20:13.873Z,72.70
2018-06-20T03:22:44.587Z,71.80
2018-06-20T03:25:15.152Z,72.20
2018-06-20T03:27:50.739Z,72.00
2018-06-20T03:30:22.839Z,71.50
2018-06-20T03:32:54.622Z,71.40
2018-06-20T03:35:28.967Z,71.60
2018-06-20T03:37:59.536Z,71.00
2018-06-20T03:40:35.007Z,71.10
2018-06-20T03:43:05.297Z,71.00
2018-06-20T03:45:36.486Z,70.50
2018-06-20T03:48:06.794Z,70.40
2018-06-20T03:50:36.958Z,70.30
2018-06-20T03:53:06.507Z,70.30
2018-06-20T03:55:36.253Z,70.40
2018-06-20T03:58:06.017Z,70.30
2018-06-20T04:00:36.108Z,70.10
2018-06-20T04:03:10.582Z,69.40
2018-06-20T04:05:44.843Z,69.70
2018-06-20T04:08:16.832Z,69.90
2018-06-20T04:10:49.196Z,69.60
2018-06-20T04:13:23.454Z,69.60
2018-06-20T04:15:58.869Z,69.00
2018-06-20T04:18:37.542Z,68.70
2018-06-20T04:21:07.487Z,68.30
2018-06-20T04:23:38.784Z,68.20
2018-06-20T04:26:08.651Z,68.00
2018-06-20T04:28:38.782Z,67.60
2018-06-20T04:31:10.350Z,66.50
2018-06-20T04:33:40.983Z,66.50
2018-06-20T04:36:19.457Z,66.50
2018-06-20T04:38:49.296Z,66.10
2018-06-20T04:41:19.728Z,65.20
2018-06-20T04:43:51.986Z,65.00
2018-06-20T04:46:26.336Z,64.80
2018-06-20T04:48:56.467Z,64.50
2018-06-20T04:51:26.918Z,64.40
2018-06-20T04:53:56.224Z,63.90
2018-06-20T04:56:26.826Z,63.80
2018-06-20T04:59:01.340Z,62.60
2018-06-20T05:01:30.867Z,63.10
2018-06-20T05:04:00.812Z,62.70
2018-06-20T05:06:31.147Z,59.90
2018-06-20T05:09:05.868Z,59.50
2018-06-20T05:11:35.948Z,57.20
2018-06-20T05:14:05.915Z,56.80
2018-06-20T05:16:43.694Z,55.80
2018-06-20T05:19:13.620Z,54.60
2018-06-20T05:21:42.924Z,55.30
2018-06-20T05:24:16.264Z,55.40
2018-06-20T05:26:48.667Z,54.60
2018-06-20T05:29:20.458Z,53.40
2018-06-20T05:31:51.206Z,54.60
2018-06-20T05:34:20.906Z,55.30
2018-06-20T05:36:55.914Z,54.80
2018-06-20T05:39:58.101Z,54.10
2018-06-20T05:42:29.386Z,53.40
2018-06-20T05:44:59.029Z,52.00
2018-06-20T05:47:29.275Z,52.30
2018-06-20T05:49:58.834Z,52.20
2018-06-20T05:52:30.483Z,52.50
2018-06-20T05:55:03.109Z,51.40
2018-06-20T05:57:33.623Z,50.30
2018-06-20T06:00:06.408Z,49.80
2018-06-20T06:02:41.859Z,49.30
2018-06-20T06:05:12.217Z,48.50
2018-06-20T06:07:42.534Z,47.30
2018-06-20T06:10:20.320Z,47.90
2018-06-20T06:12:52.127Z,48.30
2018-06-20T06:15:21.974Z,49.00
2018-06-20T06:17:51.694Z,49.10
2018-06-20T06:20:24.073Z,47.50
2018-06-20T06:22:53.176Z,46.30
2018-06-20T06:25:23.815Z,45.70
2018-06-20T06:27:54.056Z,45.50
2018-06-20T06:30:24.462Z,45.80
2018-06-20T06:32:54.784Z,45.80
2018-06-20T06:35:26.006Z,45.90
2018-06-20T06:37:56.365Z,46.50
2018-06-20T06:40:30.116Z,45.80
2018-06-20T06:43:05.981Z,45.30
2018-06-20T06:45:36.422Z,44.80
2018-06-20T06:48:07.340Z,43.80
2018-06-20T06:50:39.080Z,43.60
2018-06-20T06:53:10.912Z,42.50
2018-06-20T06:55:41.410Z,42.90
2018-06-20T06:58:13.211Z,42.90
2018-06-20T07:00:44.709Z,43.50
2018-06-20T07:03:17.266Z,43.80
2018-06-20T07:05:46.442Z,43.30
2018-06-20T07:08:18.672Z,43.30
2018-06-20T07:10:48.802Z,43.60
2018-06-20T07:13:19.403Z,42.70
2018-06-20T07:15:50.341Z,41.80
2018-06-20T07:18:20.767Z,42.50
2018-06-20T07:20:51.513Z,42.50
2018-06-20T07:23:20.571Z,42.20
2018-06-20T07:25:50.427Z,41.40
2018-06-20T07:28:19.382Z,42.10
2018-06-20T07:30:48.523Z,40.60
2018-06-20T07:33:18.278Z,38.50
2018-06-20T07:35:47.396Z,39.40
2018-06-20T07:38:16.907Z,39.70
2018-06-20T07:40:46.970Z,40.50
2018-06-20T07:43:16.788Z,40.90
2018-06-20T07:45:46.483Z,40.90
2018-06-20T07:48:17.133Z,40.40
2018-06-20T07:50:46.711Z,40.80
2018-06-20T07:53:16.439Z,41.20
2018-06-20T07:55:46.390Z,40.80
2018-06-20T07:59:18.208Z,41.10
2018-06-20T08:02:05.205Z,38.90
2018-06-20T08:04:48.486Z,39.10
2018-06-20T08:07:31.610Z,39.60
2018-06-20T08:10:06.659Z,39.60
2018-06-20T08:14:46.565Z,38.90
2018-06-20T08:17:25.783Z,38.50
2018-06-20T08:19:57.911Z,39.40
2018-06-20T08:22:28.338Z,40.30
2018-06-20T08:25:06.382Z,39.70
2018-06-20T08:27:36.928Z,40.10
2018-06-20T08:30:08.334Z,40.60
2018-06-20T08:32:37.802Z,40.50
2018-06-20T08:35:08.490Z,41.60
2018-06-20T08:37:39.038Z,41.30
2018-06-20T08:40:08.803Z,40.80
2018-06-20T08:42:38.543Z,40.80
2018-06-20T08:45:08.463Z,41.40
2018-06-20T08:47:38.719Z,41.40
2018-06-20T08:50:07.570Z,41.40
2018-06-20T08:52:37.931Z,41.10
2018-06-20T08:55:07.799Z,40.90
2018-06-20T08:57:38.079Z,41.50
2018-06-20T09:00:07.587Z,41.10
2018-06-20T09:02:37.351Z,41.30
2018-06-20T09:05:11.466Z,40.80
2018-06-20T09:07:46.270Z,40.50
2018-06-20T09:10:21.231Z,40.90
2018-06-20T09:12:55.955Z,40.20
2018-06-20T09:15:30.798Z,40.10
2018-06-20T09:18:05.526Z,40.30
2018-06-20T09:20:35.481Z,40.00
2018-06-20T09:23:08.753Z,40.60
2018-06-20T09:25:38.572Z,40.60
2018-06-20T09:28:08.383Z,39.40
2018-06-20T09:30:38.433Z,38.10
2018-06-20T09:33:07.373Z,35.80
2018-06-20T09:35:36.256Z,35.60
2018-06-20T09:38:06.452Z,35.40
2018-06-20T09:40:36.346Z,35.00
2018-06-20T09:43:06.368Z,34.90
2018-06-20T09:45:36.210Z,34.60
2018-06-20T09:48:05.899Z,35.50
2018-06-20T09:50:40.374Z,35.90
2018-06-20T09:53:10.036Z,37.00
2018-06-20T09:55:39.526Z,37.50
2018-06-20T09:58:08.874Z,38.20
2018-06-20T10:00:43.401Z,38.60
2018-06-20T10:03:18.147Z,37.00
2018-06-20T10:05:52.786Z,37.50
2018-06-20T10:08:27.358Z,37.00
2018-06-20T10:11:02.275Z,37.90
2018-06-20T10:13:39.294Z,38.00
2018-06-20T10:16:08.770Z,36.90
2018-06-20T10:18:38.838Z,36.40
2018-06-20T10:21:08.480Z,36.60
2018-06-20T10:23:38.270Z,35.90
2018-06-20T10:26:08.014Z,36.30
2018-06-20T10:28:37.721Z,36.20
2018-06-20T10:31:07.184Z,36.90
2018-06-20T10:33:36.414Z,36.40
2018-06-20T10:36:05.558Z,36.80
2018-06-20T10:38:35.457Z,36.50
2018-06-20T10:41:04.529Z,36.20
2018-06-20T10:43:33.739Z,36.30
2018-06-20T10:46:09.737Z,36.60
2018-06-20T10:48:39.006Z,36.60
2018-06-20T10:51:08.228Z,36.00
2018-06-20T10:53:37.604Z,35.90
2018-06-20T10:56:08.466Z,36.90
2018-06-20T10:58:43.358Z,36.50
2018-06-20T11:01:17.973Z,37.10
2018-06-20T11:03:53.957Z,36.60
2018-06-20T11:06:28.365Z,36.00
2018-06-20T11:09:03.004Z,36.10
2018-06-20T11:11:37.348Z,35.70
2018-06-20T11:14:07.115Z,36.20
2018-06-20T11:16:36.467Z,35.40
2018-06-20T11:19:06.479Z,35.60
2018-06-20T11:21:36.358Z,36.20
2018-06-20T11:24:06.284Z,36.30
2018-06-20T11:26:36.036Z,35.90
2018-06-20T11:29:05.638Z,35.70
2018-06-20T11:31:36.350Z,35.90
2018-06-20T11:34:06.083Z,35.60
2018-06-20T11:36:36.007Z,34.30
2018-06-20T11:39:08.057Z,35.00
2018-06-20T11:41:38.946Z,34.50
2018-06-20T11:44:08.349Z,34.60
2018-06-20T11:46:42.963Z,34.50
2018-06-20T11:49:13.047Z,34.50
2018-06-20T11:51:44.062Z,35.40
2018-06-20T11:54:13.417Z,34.10
2018-06-20T11:56:43.106Z,33.80
2018-06-20T11:59:17.829Z,33.70
2018-06-20T12:01:53.341Z,34.10
2018-06-20T12:04:28.103Z,34.40
2018-06-20T12:07:02.438Z,34.00
2018-06-20T12:09:37.274Z,33.30
2018-06-20T12:12:12.105Z,33.00
2018-06-20T12:16:47.747Z,33.40
2018-06-20T12:19:22.908Z,33.60
2018-06-20T12:21:57.427Z,34.10
2018-06-20T12:24:32.135Z,34.30
2018-06-20T12:27:07.230Z,34.60
2018-06-20T12:29:41.947Z,34.20
2018-06-20T12:32:16.630Z,34.50
2018-06-20T12:34:51.144Z,35.30
2018-06-20T13:07:15.606Z,36.90
2018-06-20T13:14:52.980Z,36.90
2018-06-20T13:17:25.639Z,36.90
2018-06-20T13:22:37.346Z,36.60
2018-06-20T13:25:08.899Z,36.40
2018-06-20T13:27:45.062Z,36.40
2018-06-20T13:30:15.343Z,37.00
2018-06-20T13:32:50.597Z,36.60
2018-06-20T13:35:25.239Z,36.40
2018-06-20T13:38:00.305Z,36.70
2018-06-20T13:40:35.259Z,36.80
2018-06-20T13:43:10.269Z,38.40
2018-06-20T13:45:45.523Z,37.90
2018-06-20T13:48:33.323Z,38.50
2018-06-20T13:51:07.948Z,38.50
2018-06-20T13:53:38.758Z,39.10
2018-06-20T13:56:08.195Z,39.90
2018-06-20T13:58:39.297Z,39.90
2018-06-20T14:01:09.423Z,40.60
2018-06-20T14:03:39.490Z,41.50
2018-06-20T14:06:10.832Z,41.50
2018-06-20T14:08:40.967Z,41.60
2018-06-20T14:11:14.388Z,41.90
2018-06-20T14:13:45.279Z,42.20
2018-06-20T14:16:14.759Z,41.70
2018-06-20T14:18:51.198Z,41.20
2018-06-20T14:21:26.236Z,41.50
2018-06-20T14:24:01.267Z,42.40
2018-06-20T14:29:12.923Z,42.20
2018-06-20T14:31:51.704Z,42.70
2018-06-20T14:37:35.050Z,41.20
2018-06-20T14:40:10.135Z,41.60
2018-06-20T14:42:44.392Z,42.60
2018-06-20T14:45:19.703Z,44.30
2018-06-20T14:47:49.260Z,46.20
2018-06-20T14:50:21.711Z,48.30
2018-06-20T14:52:52.024Z,45.50
2018-06-20T14:55:22.180Z,45.00
2018-06-20T14:57:52.532Z,45.20
2018-06-20T15:00:23.038Z,46.90
2018-06-20T15:02:52.909Z,49.10
2018-06-20T15:05:33.100Z,49.60
2018-06-20T15:08:04.399Z,52.10
2018-06-20T15:10:40.241Z,54.20
2018-06-20T15:13:14.275Z,57.40
2018-06-20T15:18:30.529Z,57.60
2018-06-20T15:27:01.731Z,62.70
2018-06-20T15:29:40.994Z,64.60
2018-06-20T15:32:35.948Z,63.90
2018-06-20T15:35:17.601Z,66.40
2018-06-20T15:40:35.664Z,66.30
2018-06-20T15:43:09.722Z,67.90
2018-06-20T15:45:40.870Z,69.30
2018-06-20T15:48:14.349Z,70.40
2018-06-20T15:56:34.316Z,74.10
2018-06-20T15:59:12.112Z,76.30
2018-06-20T16:01:52.557Z,79.10
2018-06-20T16:04:26.092Z,80.50
2018-06-20T16:06:56.198Z,82.90
2018-06-20T16:09:32.835Z,83.90
2018-06-20T16:12:03.933Z,83.80
2018-06-20T16:14:36.515Z,84.30
2018-06-20T16:17:20.700Z,82.10
2018-06-20T16:20:33.058Z,82.80
2018-06-20T16:23:11.579Z,82.30
2018-06-20T16:25:49.002Z,82.40
2018-06-20T16:28:25.000Z,82.70
2018-06-20T16:30:55.323Z,82.20
2018-06-20T16:36:00.885Z,84.60
2018-06-20T16:38:31.055Z,84.40
2018-06-20T16:41:11.634Z,84.60
2018-06-20T16:46:17.719Z,85.60
2018-06-20T16:48:48.017Z,85.70
2018-06-20T16:51:24.674Z,84.20
2018-06-20T16:53:56.319Z,85.10
2018-06-20T16:59:14.769Z,86.00
2018-06-20T17:02:04.724Z,84.70
2018-06-20T17:04:44.607Z,86.10
2018-06-20T17:07:19.811Z,88.10
2018-06-20T17:09:53.079Z,86.60
2018-06-20T17:15:14.548Z,86.10
2018-06-20T17:17:54.807Z,88.20
2018-06-20T17:20:32.068Z,87.60
2018-06-20T17:23:07.139Z,88.70
2018-06-20T17:25:38.200Z,89.40
2018-06-20T17:28:08.801Z,88.20
2018-06-20T17:30:39.365Z,88.80
2018-06-20T17:33:10.970Z,89.60
2018-06-20T17:35:46.243Z,90.00
2018-06-20T17:38:18.358Z,90.00
2018-06-20T17:40:59.136Z,91.00
2018-06-20T17:46:25.154Z,90.40
2018-06-20T17:48:56.758Z,91.00
2018-06-20T17:54:02.016Z,91.60
2018-06-20T17:56:33.057Z,91.30
2018-06-20T17:59:03.128Z,90.90
2018-06-20T18:01:33.563Z,90.40
2018-06-20T18:04:03.801Z,90.30
2018-06-20T18:06:42.098Z,90.20
2018-06-20T18:09:17.191Z,90.80
2018-06-20T18:11:52.762Z,90.90
2018-06-20T18:14:28.909Z,91.50
2018-06-20T18:19:33.508Z,91.40
2018-06-20T18:22:03.135Z,91.20
2018-06-20T18:24:33.070Z,91.30
2018-06-20T18:27:11.829Z,91.90
2018-06-20T18:29:43.818Z,91.10
2018-06-20T18:32:14.414Z,91.20
2018-06-20T18:34:44.293Z,91.20
2018-06-20T18:37:15.576Z,91.10
2018-06-20T18:39:49.579Z,91.10
2018-06-20T18:42:21.676Z,91.00
2018-06-20T18:44:52.134Z,91.10
2018-06-20T18:47:26.973Z,90.80
2018-06-20T18:52:27.241Z,90.50
2018-06-20T18:54:58.591Z,90.40
2018-06-20T18:57:34.763Z,90.60
2018-06-20T19:00:10.947Z,90.10
2018-06-20T19:04:55.857Z,90.00
2018-06-20T19:09:59.766Z,89.90
2018-06-20T19:12:37.082Z,90.40
2018-06-20T19:15:07.931Z,90.70
2018-06-20T19:17:37.924Z,90.70
2018-06-20T19:20:09.889Z,90.90
2018-06-20T19:22:39.618Z,90.50
2018-06-20T19:25:12.059Z,89.40
2018-06-20T19:30:13.598Z,90.40
2018-06-20T19:32:43.587Z,90.20
2018-06-20T19:35:19.846Z,90.50
2018-06-20T19:37:51.651Z,90.90
2018-06-20T19:40:23.608Z,91.10
2018-06-20T19:42:54.005Z,91.40
2018-06-20T19:45:29.175Z,91.60
2018-06-20T19:47:58.735Z,91.80
2018-06-20T19:50:34.593Z,92.10
2018-06-20T19:55:46.388Z,92.20
2018-06-20T19:58:17.609Z,92.30
2018-06-20T20:00:49.666Z,91.90
2018-06-20T20:03:21.643Z,92.10
2018-06-20T20:05:53.248Z,92.10
2018-06-20T20:08:22.928Z,92.80
2018-06-20T20:10:53.084Z,92.30
2018-06-20T20:13:24.587Z,92.30
2018-06-20T20:15:56.766Z,92.50
2018-06-20T20:18:26.914Z,92.30
2018-06-20T20:20:57.882Z,92.60
2018-06-20T20:23:28.601Z,92.80
2018-06-20T20:26:00.159Z,92.50
2018-06-20T20:28:37.136Z,92.60
2018-06-20T20:33:40.987Z,92.80
2018-06-20T20:36:10.987Z,92.70
2018-06-20T20:38:41.011Z,92.90
2018-06-20T20:41:11.099Z,92.90
2018-06-20T20:43:40.659Z,92.90
2018-06-20T20:48:40.542Z,93.40
2018-06-20T20:51:11.684Z,93.60
2018-06-20T20:53:42.991Z,93.50
2018-06-20T20:56:13.251Z,93.60
2018-06-20T20:58:43.159Z,93.50
2018-06-20T21:01:13.797Z,93.60
2018-06-20T21:03:42.883Z,93.50
2018-06-20T21:06:19.858Z,93.40
2018-06-20T21:08:50.807Z,93.40
2018-06-20T21:11:20.647Z,93.30
2018-06-20T21:13:51.053Z,93.40
2018-06-20T21:16:20.908Z,93.60
2018-06-20T21:18:50.532Z,93.40
2018-06-20T21:21:20.537Z,93.40
2018-06-20T21:23:50.848Z,93.40
2018-06-20T21:26:21.567Z,93.10
2018-06-20T21:28:52.304Z,93.20
2018-06-20T21:31:23.616Z,93.20
2018-06-20T21:33:54.735Z,93.80
2018-06-20T21:36:25.939Z,93.50
2018-06-20T21:38:56.324Z,93.40
2018-06-20T21:43:57.033Z,93.30
2018-06-20T21:46:29.462Z,93.30
2018-06-20T21:48:59.435Z,93.20
2018-06-20T21:51:29.522Z,93.20
2018-06-20T21:53:59.724Z,93.30
2018-06-20T21:56:30.033Z,93.30
2018-06-20T21:59:06.402Z,93.40
2018-06-20T22:01:35.682Z,93.70
2018-06-20T22:04:05.110Z,93.50
2018-06-20T22:06:34.355Z,93.70
2018-06-20T22:09:03.729Z,94.00
2018-06-20T22:11:38.435Z,93.90
2018-06-20T22:19:15.422Z,94.00
2018-06-20T22:21:45.643Z,93.90
2018-06-20T22:24:15.298Z,94.10
2018-06-20T22:26:46.171Z,94.00
2018-06-20T22:29:17.314Z,94.10
2018-06-20T22:34:16.155Z,94.10
2018-06-20T22:36:46.639Z,94.10
2018-06-20T22:39:16.622Z,94.00
2018-06-20T22:41:48.759Z,93.70
2018-06-20T22:44:18.490Z,93.70
2018-06-20T22:46:48.805Z,93.50
2018-06-20T22:49:17.312Z,93.50
2018-06-20T22:54:20.640Z,93.50
2018-06-20T22:56:52.290Z,93.50
2018-06-20T22:59:24.595Z,93.20
2018-06-20T23:01:54.693Z,93.40
2018-06-20T23:04:23.627Z,93.20
2018-06-20T23:06:54.991Z,93.50
2018-06-20T23:09:27.415Z,93.50
2018-06-20T23:11:57.514Z,93.50
2018-06-20T23:14:27.482Z,93.70
2018-06-20T23:16:57.266Z,93.90
2018-06-20T23:19:26.643Z,93.70
2018-06-20T23:21:58.142Z,93.90
2018-06-20T23:24:29.487Z,93.70
2018-06-20T23:26:58.900Z,93.70
2018-06-20T23:29:28.502Z,93.50
2018-06-20T23:31:58.531Z,93.60
2018-06-20T23:34:28.246Z,93.40
2018-06-20T23:36:58.591Z,93.50
2018-06-20T23:39:28.311Z,93.50
2018-06-20T23:44:27.488Z,93.30
2018-06-20T23:47:02.631Z,93.10
2018-06-20T23:49:33.140Z,93.20
2018-06-20T23:52:02.733Z,93.20
2018-06-20T23:54:33.213Z,93.10
2018-06-20T23:57:03.655Z,93.10
2018-06-20T23:59:33.247Z,93.40
